Time;durP1;ratioP1;P1;durP2;ratioP2;P2;SDS_P1;SDS_P2;PMS_P1;PMS_P2;Temp;Humidity;BMP_temperature;BMP_pressure;BME280_temperature;BME280_humidity;BME280_pressure;Samples;Min_cycle;Max_cycle;Signal;HPM_P1;HPM_P2
2024/03/22 00:00:26;;;;;;;50.30;23.87;;;11.30;99.90;;;;;;788443;180;26483;-81
2024/03/22 00:02:53;;;;;;;49.63;23.93;;;11.30;99.90;;;;;;783402;181;26456;-83
2024/03/22 00:05:21;;;;;;;50.30;24.37;;;11.30;99.90;;;;;;798590;176;26460;-81
2024/03/22 00:07:47;;;;;;;51.87;23.73;;;11.30;99.90;;;;;;796955;175;26450;-82
2024/03/22 00:10:13;;;;;;;49.03;23.80;;;11.30;99.90;;;;;;788955;180;26483;-83
2024/03/22 00:12:40;;;;;;;48.73;24.10;;;11.30;99.90;;;;;;794941;180;26485;-83
2024/03/22 00:15:07;;;;;;;47.80;25.00;;;11.20;99.90;;;;;;799073;177;26603;-82
2024/03/22 00:17:34;;;;;;;47.43;24.37;;;11.10;99.90;;;;;;797490;179;26434;-82
2024/03/22 00:20:00;;;;;;;46.07;24.40;;;11.10;99.90;;;;;;802553;179;26534;-82
2024/03/22 00:22:27;;;;;;;43.63;23.17;;;11.00;99.90;;;;;;796642;180;26472;-82
2024/03/22 00:24:54;;;;;;;49.37;25.17;;;11.00;99.90;;;;;;797764;180;26462;-83
2024/03/22 00:27:21;;;;;;;47.80;24.17;;;11.00;99.90;;;;;;784420;180;26459;-81
2024/03/22 00:29:48;;;;;;;49.83;23.80;;;11.00;99.90;;;;;;797708;180;26631;-81
2024/03/22 00:32:15;;;;;;;45.50;23.60;;;11.00;99.90;;;;;;797441;180;26498;-82
2024/03/22 00:34:41;;;;;;;45.33;23.47;;;10.90;99.90;;;;;;796594;180;26463;-82
2024/03/22 00:37:08;;;;;;;46.63;24.60;;;10.90;99.90;;;;;;796102;180;26488;-83
2024/03/22 00:39:35;;;;;;;47.43;24.33;;;10.90;99.90;;;;;;787822;180;26504;-82
2024/03/22 00:42:01;;;;;;;45.53;24.63;;;10.90;99.90;;;;;;801021;179;26453;-82
2024/03/22 00:44:28;;;;;;;46.53;24.67;;;10.90;99.90;;;;;;798590;179;27032;-82
2024/03/22 00:46:54;;;;;;;45.90;25.13;;;10.90;99.90;;;;;;800049;175;26437;-82
2024/03/22 00:49:21;;;;;;;47.13;24.20;;;10.90;99.90;;;;;;794646;179;28094;-82
2024/03/22 00:51:48;;;;;;;46.27;24.03;;;10.90;99.90;;;;;;791316;181;26472;-81
2024/03/22 00:54:14;;;;;;;51.50;25.77;;;10.90;99.90;;;;;;794111;177;26436;-83
2024/03/22 00:56:41;;;;;;;43.53;24.50;;;11.00;99.90;;;;;;791745;180;26477;-82
2024/03/22 00:59:08;;;;;;;51.80;26.17;;;11.00;99.90;;;;;;792646;180;26478;-81
2024/03/22 01:01:35;;;;;;;45.93;24.17;;;11.00;99.90;;;;;;792166;181;26439;-81
2024/03/22 01:04:02;;;;;;;44.47;24.90;;;10.90;99.90;;;;;;795445;180;26779;-82
2024/03/22 01:06:28;;;;;;;43.87;24.93;;;10.90;99.90;;;;;;792918;180;26450;-83
2024/03/22 01:08:55;;;;;;;41.90;24.00;;;10.90;99.90;;;;;;795786;179;26480;-81
2024/03/22 01:11:22;;;;;;;45.87;25.90;;;10.90;99.90;;;;;;800460;180;26496;-83
2024/03/22 01:13:48;;;;;;;39.93;23.63;;;10.90;99.90;;;;;;791161;180;26454;-83
2024/03/22 01:16:15;;;;;;;44.37;24.40;;;10.90;99.90;;;;;;796634;180;26442;-82
2024/03/22 01:18:42;;;;;;;44.90;25.37;;;10.90;99.90;;;;;;798080;179;26470;-82
2024/03/22 01:21:08;;;;;;;43.00;24.93;;;10.90;99.90;;;;;;789935;180;27023;-82
2024/03/22 01:23:35;;;;;;;43.53;23.87;;;10.80;99.90;;;;;;797025;180;26442;-82
2024/03/22 01:26:02;;;;;;;43.33;24.97;;;10.80;99.90;;;;;;803294;177;26457;-82
2024/03/22 01:28:28;;;;;;;41.80;24.80;;;10.80;99.90;;;;;;795429;179;26453;-84
2024/03/22 01:30:55;;;;;;;43.50;25.00;;;10.80;99.90;;;;;;797112;179;26450;-82
2024/03/22 01:33:22;;;;;;;41.00;23.97;;;10.80;99.90;;;;;;795041;178;26486;-82
2024/03/22 01:35:49;;;;;;;40.23;22.73;;;10.80;99.90;;;;;;795572;180;26440;-82
2024/03/22 01:38:16;;;;;;;39.20;23.10;;;10.80;99.90;;;;;;797976;180;26434;-84
2024/03/22 01:40:42;;;;;;;41.07;24.27;;;10.80;99.90;;;;;;794700;180;26480;-81
2024/03/22 01:43:09;;;;;;;39.97;23.37;;;10.80;99.90;;;;;;796864;179;26459;-82
2024/03/22 01:45:36;;;;;;;41.07;22.63;;;10.80;99.90;;;;;;792285;179;26471;-82
2024/03/22 01:48:03;;;;;;;42.87;22.93;;;10.80;99.90;;;;;;795750;180;26451;-82
2024/03/22 01:50:31;;;;;;;41.07;22.73;;;10.80;99.90;;;;;;793859;179;26472;-82
2024/03/22 01:52:58;;;;;;;39.07;22.43;;;10.80;99.90;;;;;;796552;179;26581;-82
2024/03/22 01:55:25;;;;;;;41.07;23.13;;;10.80;99.90;;;;;;797985;179;26474;-83
2024/03/22 01:57:52;;;;;;;42.57;23.53;;;10.90;99.90;;;;;;797914;179;26443;-81
2024/03/22 02:00:18;;;;;;;41.97;23.20;;;10.80;99.90;;;;;;790945;180;26463;-82
2024/03/22 02:02:45;;;;;;;39.27;21.90;;;10.80;99.90;;;;;;796117;180;26466;-82
2024/03/22 02:05:13;;;;;;;38.50;22.27;;;10.80;99.90;;;;;;795945;180;28123;-81
2024/03/22 02:07:40;;;;;;;38.70;21.90;;;10.80;99.90;;;;;;794178;180;26479;-82
2024/03/22 02:10:07;;;;;;;35.60;21.47;;;10.80;99.90;;;;;;791488;179;26514;-82
2024/03/22 02:12:34;;;;;;;43.00;23.90;;;10.80;99.90;;;;;;797704;179;26438;-82
2024/03/22 02:15:01;;;;;;;40.20;22.37;;;10.80;99.90;;;;;;794037;180;26459;-83
2024/03/22 02:17:28;;;;;;;37.73;21.47;;;10.80;99.90;;;;;;793757;180;26609;-82
2024/03/22 02:19:54;;;;;;;36.13;21.00;;;10.80;99.90;;;;;;790964;180;26478;-82
2024/03/22 02:22:21;;;;;;;36.70;20.83;;;10.80;99.90;;;;;;795290;180;26432;-82
2024/03/22 02:24:48;;;;;;;39.23;22.37;;;10.70;99.90;;;;;;797001;180;26446;-83
2024/03/22 02:27:15;;;;;;;39.47;21.73;;;10.80;99.90;;;;;;795008;179;26467;-82
2024/03/22 02:29:42;;;;;;;39.60;21.97;;;10.80;99.90;;;;;;797977;180;26501;-82
2024/03/22 02:32:08;;;;;;;33.47;20.87;;;10.90;99.90;;;;;;797742;180;26456;-83
2024/03/22 02:34:36;;;;;;;44.00;23.33;;;10.90;99.90;;;;;;792931;180;26591;-82
2024/03/22 02:37:03;;;;;;;42.40;22.60;;;10.90;99.90;;;;;;793675;178;26442;-82
2024/03/22 02:39:30;;;;;;;38.27;22.33;;;10.80;99.90;;;;;;799916;179;26466;-82
2024/03/22 02:41:57;;;;;;;37.23;20.90;;;10.80;99.90;;;;;;789894;181;26450;-82
2024/03/22 02:44:24;;;;;;;34.43;20.57;;;10.80;99.90;;;;;;792440;176;27006;-81
2024/03/22 02:46:50;;;;;;;36.90;21.17;;;10.80;99.90;;;;;;792838;180;26435;-82
2024/03/22 02:49:17;;;;;;;40.07;21.90;;;10.80;99.90;;;;;;793807;179;26483;-83
2024/03/22 02:51:44;;;;;;;39.37;21.77;;;10.80;99.90;;;;;;796474;175;26470;-82
2024/03/22 02:54:10;;;;;;;35.37;20.67;;;10.80;99.90;;;;;;799620;179;26460;-81
2024/03/22 02:56:37;;;;;;;36.37;21.20;;;10.80;99.90;;;;;;796932;179;26444;-82
2024/03/22 02:59:04;;;;;;;37.10;20.70;;;10.80;99.90;;;;;;798413;169;26696;-79
2024/03/22 03:01:30;;;;;;;36.80;19.93;;;10.80;99.90;;;;;;799790;179;26496;-79
2024/03/22 03:03:57;;;;;;;41.47;21.40;;;10.80;99.90;;;;;;784565;183;26487;-79
2024/03/22 03:06:24;;;;;;;36.63;20.33;;;10.80;99.90;;;;;;799129;179;26597;-80
2024/03/22 03:08:50;;;;;;;32.53;20.13;;;10.80;99.90;;;;;;803960;176;26461;-80
2024/03/22 03:11:17;;;;;;;31.90;19.07;;;10.90;99.90;;;;;;812927;176;27028;-80
2024/03/22 03:13:43;;;;;;;38.57;22.27;;;10.90;99.90;;;;;;809736;176;26474;-80
2024/03/22 03:16:10;;;;;;;40.50;21.30;;;10.90;99.90;;;;;;802825;177;27071;-80
2024/03/22 03:18:36;;;;;;;35.40;20.40;;;10.90;99.90;;;;;;809664;176;26479;-81
2024/03/22 03:21:03;;;;;;;38.97;20.40;;;10.90;99.90;;;;;;808497;177;27020;-80
2024/03/22 03:23:30;;;;;;;32.77;19.03;;;10.90;99.90;;;;;;803851;177;26434;-80
2024/03/22 03:25:56;;;;;;;34.77;19.37;;;10.90;99.90;;;;;;804352;177;26452;-80
2024/03/22 03:28:25;;;;;;;42.03;23.83;;;10.90;99.90;;;;;;812234;177;26462;-79
2024/03/22 03:30:49;;;;;;;33.87;20.70;;;10.90;99.90;;;;;;808633;176;26444;-80
2024/03/22 03:33:16;;;;;;;37.50;21.27;;;10.80;99.90;;;;;;810008;176;26422;-80
2024/03/22 03:35:45;;;;;;;34.47;20.03;;;10.80;99.90;;;;;;798089;177;26455;-80
2024/03/22 03:38:12;;;;;;;33.80;20.37;;;10.70;99.90;;;;;;801654;176;26653;-80
2024/03/22 03:40:39;;;;;;;35.17;20.67;;;10.70;99.90;;;;;;811767;176;26445;-80
2024/03/22 03:43:05;;;;;;;37.77;21.20;;;10.70;99.90;;;;;;800613;177;26461;-80
2024/03/22 03:45:32;;;;;;;40.37;20.93;;;10.80;99.90;;;;;;810177;175;26458;-80
2024/03/22 03:47:58;;;;;;;38.33;21.20;;;10.80;99.90;;;;;;811525;172;26493;-81
2024/03/22 03:50:25;;;;;;;38.90;20.70;;;10.80;99.90;;;;;;812547;175;26429;-81
2024/03/22 03:52:52;;;;;;;36.07;20.70;;;10.70;99.90;;;;;;804417;177;27000;-81
2024/03/22 03:55:18;;;;;;;33.77;21.37;;;10.80;99.90;;;;;;801303;177;26631;-80
2024/03/22 03:57:45;;;;;;;41.67;21.50;;;10.80;99.90;;;;;;815408;175;26461;-79
2024/03/22 04:00:12;;;;;;;34.17;20.63;;;10.80;99.90;;;;;;801697;177;26460;-81
2024/03/22 04:02:38;;;;;;;34.10;19.57;;;10.70;99.90;;;;;;797844;177;26441;-79
2024/03/22 04:05:05;;;;;;;33.80;19.60;;;10.70;99.90;;;;;;804686;177;26602;-78
2024/03/22 04:07:32;;;;;;;36.50;19.77;;;10.70;99.90;;;;;;807396;174;26563;-78
2024/03/22 04:10:00;;;;;;;32.87;19.30;;;10.80;99.90;;;;;;806243;174;26572;-78
2024/03/22 04:12:25;;;;;;;34.30;18.67;;;10.90;99.90;;;;;;802898;177;26442;-78
2024/03/22 04:14:51;;;;;;;35.53;20.43;;;10.90;99.90;;;;;;798714;178;26454;-79
2024/03/22 04:17:18;;;;;;;34.17;20.67;;;10.90;99.90;;;;;;809811;176;26502;-79
2024/03/22 04:19:45;;;;;;;33.93;19.63;;;10.90;99.90;;;;;;812125;176;26472;-79
2024/03/22 04:22:11;;;;;;;32.17;18.63;;;10.80;99.90;;;;;;802771;177;26475;-79
2024/03/22 04:24:38;;;;;;;40.87;21.80;;;10.80;99.90;;;;;;809951;177;26454;-78
2024/03/22 04:27:05;;;;;;;28.63;18.33;;;10.80;99.90;;;;;;800305;177;26444;-78
2024/03/22 04:29:31;;;;;;;34.10;19.47;;;10.70;99.90;;;;;;809720;177;26449;-80
2024/03/22 04:31:58;;;;;;;33.57;19.47;;;10.60;99.90;;;;;;801145;177;26597;-79
2024/03/22 04:34:24;;;;;;;34.77;19.97;;;10.50;99.90;;;;;;797277;175;26449;-79
2024/03/22 04:36:52;;;;;;;34.37;19.50;;;10.50;99.90;;;;;;794899;177;26578;-78
2024/03/22 04:39:17;;;;;;;36.90;20.70;;;10.40;99.90;;;;;;803637;176;26539;-80
2024/03/22 04:41:44;;;;;;;36.63;20.33;;;10.30;99.90;;;;;;803787;176;26446;-79
2024/03/22 04:44:11;;;;;;;33.50;19.97;;;10.30;99.90;;;;;;808453;176;26586;-79
2024/03/22 04:46:37;;;;;;;34.03;19.27;;;10.40;99.90;;;;;;810425;176;27082;-80
2024/03/22 04:49:04;;;;;;;33.23;19.37;;;10.40;99.90;;;;;;812747;176;26587;-79
2024/03/22 04:51:31;;;;;;;44.10;20.50;;;10.40;99.90;;;;;;810177;177;26446;-81
2024/03/22 04:53:57;;;;;;;34.77;19.93;;;10.40;99.90;;;;;;798481;177;26442;-81
2024/03/22 04:56:24;;;;;;;34.63;19.30;;;10.40;99.90;;;;;;811219;176;26421;-80
2024/03/22 04:58:50;;;;;;;35.03;19.63;;;10.50;99.90;;;;;;793399;177;26475;-77
2024/03/22 05:01:17;;;;;;;36.10;19.40;;;10.50;99.90;;;;;;797107;177;26442;-79
2024/03/22 05:03:43;;;;;;;35.77;19.97;;;10.60;99.90;;;;;;800902;176;26608;-79
2024/03/22 05:06:10;;;;;;;32.30;20.07;;;10.60;99.90;;;;;;801265;175;26459;-81
2024/03/22 05:08:37;;;;;;;35.53;19.33;;;10.60;99.90;;;;;;797897;177;26787;-79
2024/03/22 05:11:03;;;;;;;33.07;18.50;;;10.60;99.90;;;;;;809337;176;26473;-81
2024/03/22 05:13:31;;;;;;;30.67;18.23;;;10.60;99.90;;;;;;811104;175;26447;-79
2024/03/22 05:15:57;;;;;;;37.07;19.30;;;10.70;99.90;;;;;;814017;175;26609;-79
2024/03/22 05:18:24;;;;;;;35.23;19.70;;;10.70;99.90;;;;;;802217;178;26476;-80
2024/03/22 05:20:50;;;;;;;31.43;19.73;;;10.60;99.90;;;;;;802830;177;26456;-80
2024/03/22 05:23:18;;;;;;;32.33;18.20;;;10.60;99.90;;;;;;812148;175;26479;-81
2024/03/22 05:25:44;;;;;;;36.43;19.17;;;10.60;99.90;;;;;;811431;174;26481;-77
2024/03/22 05:28:10;;;;;;;31.23;17.80;;;10.70;99.90;;;;;;811586;176;26652;-80
2024/03/22 05:30:37;;;;;;;35.93;19.27;;;10.70;99.90;;;;;;811579;176;26474;-81
2024/03/22 05:33:04;;;;;;;35.30;19.43;;;10.70;99.90;;;;;;812306;175;26429;-81
2024/03/22 05:35:30;;;;;;;32.93;18.00;;;10.70;99.90;;;;;;803677;178;26453;-80
2024/03/22 05:37:57;;;;;;;29.27;18.87;;;10.70;99.90;;;;;;796547;177;26447;-80
2024/03/22 05:40:24;;;;;;;28.50;17.43;;;10.80;99.90;;;;;;796319;178;26448;-81
2024/03/22 05:42:51;;;;;;;31.33;18.47;;;10.80;99.90;;;;;;809365;177;26433;-81
2024/03/22 05:45:17;;;;;;;32.83;17.80;;;10.80;99.90;;;;;;799326;177;26444;-81
2024/03/22 05:47:44;;;;;;;32.17;18.67;;;10.80;99.90;;;;;;811443;176;26472;-80
2024/03/22 05:50:11;;;;;;;28.93;17.30;;;10.80;99.90;;;;;;811296;176;26433;-81
2024/03/22 05:52:37;;;;;;;32.63;17.00;;;10.90;99.90;;;;;;811721;176;27039;-79
2024/03/22 05:55:05;;;;;;;31.10;18.37;;;10.90;99.90;;;;;;810214;176;26452;-80
2024/03/22 05:57:31;;;;;;;31.70;17.63;;;10.90;99.90;;;;;;798247;176;26977;-80
2024/03/22 05:59:58;;;;;;;29.63;17.17;;;11.00;99.90;;;;;;809988;176;26570;-80
2024/03/22 06:02:25;;;;;;;31.90;18.03;;;11.10;99.90;;;;;;802855;177;26454;-80
2024/03/22 06:04:51;;;;;;;30.13;18.13;;;11.10;99.90;;;;;;811501;176;26444;-81
2024/03/22 06:07:18;;;;;;;28.77;17.23;;;11.20;99.90;;;;;;799762;177;26998;-79
2024/03/22 06:09:46;;;;;;;31.93;18.80;;;11.20;99.90;;;;;;799556;177;26453;-78
2024/03/22 06:12:13;;;;;;;31.27;17.77;;;11.30;99.90;;;;;;815322;174;26578;-79
2024/03/22 06:14:41;;;;;;;33.60;17.43;;;11.40;99.90;;;;;;800328;173;26432;-79
2024/03/22 06:17:08;;;;;;;28.40;17.40;;;11.50;99.90;;;;;;801103;176;26640;-79
2024/03/22 06:19:35;;;;;;;33.77;18.03;;;11.50;99.90;;;;;;799844;174;26464;-80
2024/03/22 06:22:03;;;;;;;28.83;17.27;;;11.50;99.90;;;;;;799317;177;26512;-79
2024/03/22 06:24:30;;;;;;;28.47;16.40;;;11.60;99.90;;;;;;813037;175;26449;-80
2024/03/22 06:26:57;;;;;;;31.73;17.40;;;11.70;99.90;;;;;;812450;175;26562;-80
2024/03/22 06:29:24;;;;;;;29.60;17.20;;;11.70;99.90;;;;;;807974;176;26570;-80
2024/03/22 06:31:52;;;;;;;32.43;18.20;;;11.70;99.90;;;;;;812691;176;26450;-79
2024/03/22 06:34:17;;;;;;;27.63;16.83;;;11.70;99.90;;;;;;811852;176;26445;-81
2024/03/22 06:36:44;;;;;;;28.60;17.77;;;11.70;99.90;;;;;;808362;176;26441;-81
2024/03/22 06:39:11;;;;;;;30.77;18.43;;;11.80;99.90;;;;;;811849;176;26598;-79
2024/03/22 06:41:37;;;;;;;31.23;17.93;;;11.80;99.90;;;;;;812970;176;26464;-80
2024/03/22 06:44:04;;;;;;;36.33;18.07;;;11.80;99.90;;;;;;805728;175;26420;-79
2024/03/22 06:46:31;;;;;;;31.63;18.47;;;11.70;99.90;;;;;;813088;174;26457;-79
2024/03/22 06:48:58;;;;;;;34.33;19.47;;;11.80;99.90;;;;;;812444;170;26495;-80
2024/03/22 06:51:24;;;;;;;29.87;18.20;;;11.80;99.90;;;;;;813690;172;26473;-79
2024/03/22 06:53:51;;;;;;;32.80;18.07;;;11.80;99.90;;;;;;814193;174;26461;-81
2024/03/22 06:56:19;;;;;;;26.03;16.47;;;11.90;99.90;;;;;;811501;173;26604;-80
2024/03/22 06:58:45;;;;;;;26.67;17.13;;;12.10;99.90;;;;;;810612;176;26464;-82
2024/03/22 07:01:12;;;;;;;30.63;17.53;;;12.30;99.90;;;;;;811856;176;26572;-81
2024/03/22 07:03:38;;;;;;;31.03;17.90;;;12.50;99.90;;;;;;814666;174;26444;-79
2024/03/22 07:06:07;;;;;;;32.93;17.57;;;12.70;99.90;;;;;;802852;176;26441;-77
2024/03/22 07:08:32;;;;;;;32.57;17.70;;;12.80;99.90;;;;;;811086;174;26453;-80
2024/03/22 07:10:59;;;;;;;38.83;16.63;;;13.00;99.90;;;;;;812030;177;26447;-81
2024/03/22 07:13:25;;;;;;;30.80;17.20;;;13.10;99.90;;;;;;810331;174;26967;-81
2024/03/22 07:15:52;;;;;;;32.50;18.23;;;13.20;99.90;;;;;;800652;177;26433;-81
2024/03/22 07:18:19;;;;;;;31.80;17.87;;;13.30;99.90;;;;;;813153;173;26466;-81
2024/03/22 07:20:46;;;;;;;29.77;17.57;;;13.30;99.90;;;;;;811024;176;26980;-82
2024/03/22 07:23:13;;;;;;;36.40;17.73;;;13.40;99.90;;;;;;808389;176;26437;-79
2024/03/22 07:25:42;;;;;;;26.57;16.37;;;13.50;99.90;;;;;;805784;176;26429;-81
2024/03/22 07:28:06;;;;;;;35.63;16.50;;;13.50;99.90;;;;;;809957;174;26452;-81
2024/03/22 07:30:33;;;;;;;28.20;16.80;;;13.60;99.90;;;;;;812465;175;26454;-78
2024/03/22 07:33:00;;;;;;;26.20;16.53;;;13.60;99.90;;;;;;813389;173;26425;-81
2024/03/22 07:35:27;;;;;;;31.27;17.67;;;13.60;99.90;;;;;;797481;177;26431;-81
2024/03/22 07:37:53;;;;;;;27.27;16.53;;;13.60;99.90;;;;;;811153;175;27725;-81
2024/03/22 07:40:20;;;;;;;28.60;17.00;;;13.50;99.90;;;;;;801146;177;28076;-80
2024/03/22 07:42:47;;;;;;;26.13;16.83;;;13.60;99.90;;;;;;796084;177;26977;-81
2024/03/22 07:45:14;;;;;;;28.53;16.97;;;13.50;99.90;;;;;;799408;178;26428;-80
2024/03/22 07:47:42;;;;;;;31.07;17.80;;;13.50;99.90;;;;;;813070;176;26584;-81
2024/03/22 07:50:08;;;;;;;33.70;17.60;;;13.70;99.90;;;;;;814110;176;26440;-80
2024/03/22 07:52:34;;;;;;;33.90;17.70;;;13.90;99.90;;;;;;813151;177;26410;-81
2024/03/22 07:55:02;;;;;;;28.10;17.00;;;14.10;99.90;;;;;;815420;176;26440;-80
2024/03/22 07:57:30;;;;;;;30.17;17.73;;;14.40;99.90;;;;;;804425;177;26426;-79
2024/03/22 07:59:56;;;;;;;30.87;16.17;;;14.50;99.90;;;;;;794440;177;26419;-80
2024/03/22 08:02:23;;;;;;;30.77;17.20;;;14.70;99.90;;;;;;812391;176;26429;-80
2024/03/22 08:04:50;;;;;;;32.10;17.47;;;14.80;99.90;;;;;;815756;174;26413;-79
2024/03/22 08:07:17;;;;;;;34.77;18.13;;;14.90;99.90;;;;;;812817;173;26557;-79
2024/03/22 08:09:43;;;;;;;34.73;18.07;;;14.90;99.90;;;;;;799057;176;26464;-78
2024/03/22 08:12:10;;;;;;;32.40;18.97;;;14.90;99.90;;;;;;815837;176;26427;-80
2024/03/22 08:14:37;;;;;;;34.43;19.13;;;14.80;99.90;;;;;;809125;176;26581;-79
2024/03/22 08:17:04;;;;;;;34.63;19.13;;;14.80;99.90;;;;;;812044;176;26433;-79
2024/03/22 08:19:30;;;;;;;36.50;19.23;;;14.80;99.90;;;;;;812386;176;26491;-80
2024/03/22 08:21:58;;;;;;;37.57;20.97;;;14.90;99.90;;;;;;797559;178;26431;-79
2024/03/22 08:24:25;;;;;;;33.53;20.37;;;15.00;99.90;;;;;;796134;178;26414;-79
2024/03/22 08:26:51;;;;;;;33.83;19.77;;;15.10;99.90;;;;;;807752;177;26418;-79
2024/03/22 08:29:18;;;;;;;33.60;20.70;;;15.20;99.90;;;;;;811534;176;26446;-80
2024/03/22 08:31:45;;;;;;;34.67;20.23;;;15.10;99.90;;;;;;810676;176;26436;-80
2024/03/22 08:34:12;;;;;;;31.60;20.60;;;15.30;99.90;;;;;;811609;175;26472;-80
2024/03/22 08:36:39;;;;;;;33.80;19.03;;;15.50;99.90;;;;;;813044;176;26434;-81
2024/03/22 08:39:09;;;;;;;36.93;20.60;;;15.60;99.90;;;;;;812344;177;26445;-80
2024/03/22 08:41:33;;;;;;;33.50;20.53;;;15.60;99.90;;;;;;811635;175;27021;-81
2024/03/22 08:44:00;;;;;;;33.43;19.63;;;15.60;99.90;;;;;;806737;176;26434;-80
2024/03/22 08:46:28;;;;;;;33.13;19.50;;;15.60;99.90;;;;;;802872;176;26427;-82
2024/03/22 08:48:53;;;;;;;30.17;19.07;;;15.50;99.90;;;;;;809919;176;26995;-80
2024/03/22 08:51:20;;;;;;;31.50;18.90;;;15.70;99.90;;;;;;808746;176;26577;-81
2024/03/22 08:53:47;;;;;;;34.57;20.60;;;15.70;99.90;;;;;;801523;176;26439;-79
2024/03/22 08:56:14;;;;;;;29.07;18.57;;;15.70;99.90;;;;;;800986;176;26454;-81
2024/03/22 08:58:40;;;;;;;27.43;16.80;;;15.60;99.90;;;;;;812735;174;26458;-78
2024/03/22 09:01:09;;;;;;;27.70;17.43;;;15.60;99.90;;;;;;799300;174;26437;-78
2024/03/22 09:03:34;;;;;;;26.40;15.83;;;15.70;99.90;;;;;;797505;177;26452;-78
2024/03/22 09:06:00;;;;;;;25.00;15.83;;;15.60;99.90;;;;;;798629;173;26443;-78
2024/03/22 09:08:29;;;;;;;27.73;14.30;;;15.90;99.90;;;;;;814480;177;27033;-80
2024/03/22 09:10:53;;;;;;;23.17;12.37;;;16.00;99.90;;;;;;804886;177;26630;-80
2024/03/22 09:13:20;;;;;;;24.50;14.53;;;16.00;99.90;;;;;;812316;176;26465;-81
2024/03/22 09:15:47;;;;;;;28.97;14.07;;;16.10;99.90;;;;;;800854;177;26443;-80
2024/03/22 09:18:13;;;;;;;21.73;12.07;;;16.40;99.90;;;;;;791810;177;26470;-80
2024/03/22 09:20:40;;;;;;;22.73;13.17;;;16.40;99.90;;;;;;811341;176;26452;-81
2024/03/22 09:23:06;;;;;;;21.30;12.67;;;16.50;99.90;;;;;;804487;175;26464;-81
2024/03/22 09:25:33;;;;;;;21.50;11.93;;;16.60;99.90;;;;;;810347;173;26420;-80
2024/03/22 09:28:00;;;;;;;21.73;12.67;;;16.70;99.90;;;;;;808873;173;26472;-79
2024/03/22 09:30:26;;;;;;;17.60;10.60;;;16.70;99.70;;;;;;807662;173;26498;-79
2024/03/22 09:32:53;;;;;;;17.40;9.87;;;16.80;98.90;;;;;;802858;176;26764;-80
2024/03/22 09:35:19;;;;;;;13.80;7.37;;;16.90;99.40;;;;;;806134;176;26422;-80
2024/03/22 09:37:46;;;;;;;15.10;9.37;;;16.80;97.80;;;;;;806509;176;26468;-79
2024/03/22 09:40:13;;;;;;;20.10;10.00;;;16.60;99.00;;;;;;798169;180;26451;-81
2024/03/22 09:42:39;;;;;;;18.20;10.20;;;16.60;98.70;;;;;;793676;180;26454;-81
2024/03/22 09:45:07;;;;;;;23.70;12.17;;;16.70;97.40;;;;;;812412;176;26460;-80
2024/03/22 09:47:34;;;;;;;13.83;8.47;;;16.70;98.70;;;;;;801014;176;26480;-81
2024/03/22 09:50:00;;;;;;;12.73;7.93;;;16.80;97.40;;;;;;794088;179;26514;-81
2024/03/22 09:52:27;;;;;;;16.30;8.50;;;16.90;97.60;;;;;;813990;176;26568;-82
2024/03/22 09:54:54;;;;;;;21.73;13.97;;;16.90;96.80;;;;;;814119;176;26429;-81
2024/03/22 09:57:20;;;;;;;29.80;16.23;;;17.00;96.80;;;;;;810925;176;26980;-81
2024/03/22 09:59:47;;;;;;;13.90;8.23;;;17.20;97.00;;;;;;809703;176;26450;-81
2024/03/22 10:02:13;;;;;;;8.40;5.23;;;17.40;95.90;;;;;;804063;177;26456;-82
2024/03/22 10:04:41;;;;;;;16.83;7.87;;;17.60;93.50;;;;;;795982;178;26505;-82
2024/03/22 10:07:10;;;;;;;14.73;7.97;;;17.50;95.00;;;;;;810073;176;26453;-80
2024/03/22 10:09:35;;;;;;;28.77;16.27;;;17.60;95.80;;;;;;810814;176;26468;-80
2024/03/22 10:12:03;;;;;;;29.57;15.67;;;17.20;94.50;;;;;;814830;176;26437;-80
2024/03/22 10:14:28;;;;;;;30.77;16.70;;;17.20;96.40;;;;;;802646;176;26589;-79
2024/03/22 10:16:55;;;;;;;17.70;11.40;;;17.30;96.40;;;;;;811959;174;26425;-81
2024/03/22 10:19:22;;;;;;;14.53;8.67;;;17.40;96.40;;;;;;806215;177;26445;-81
2024/03/22 10:21:49;;;;;;;11.77;7.53;;;17.40;96.00;;;;;;811493;176;26443;-79
2024/03/22 10:24:15;;;;;;;11.73;6.87;;;17.20;94.90;;;;;;797097;177;26580;-80
2024/03/22 10:26:42;;;;;;;14.53;8.03;;;17.00;95.40;;;;;;797067;178;26445;-80
2024/03/22 10:29:09;;;;;;;14.10;8.20;;;16.80;97.50;;;;;;812397;170;26497;-82
2024/03/22 10:31:37;;;;;;;13.30;8.47;;;16.90;97.40;;;;;;810998;176;26443;-81
2024/03/22 10:34:18;;;;;;;18.13;8.70;;;17.00;96.80;;;;;;811459;174;26441;-80
2024/03/22 10:36:52;;;;;;;20.03;11.80;;;17.00;97.50;;;;;;805522;174;26439;-80
2024/03/22 10:39:21;;;;;;;28.97;16.23;;;17.10;97.30;;;;;;803826;173;26450;-80
2024/03/22 10:42:02;;;;;;;23.60;13.30;;;17.10;96.90;;;;;;800119;167;26988;-81
2024/03/22 10:44:34;;;;;;;16.90;10.17;;;17.30;95.90;;;;;;813814;176;26651;-80
2024/03/22 10:47:10;;;;;;;15.07;8.13;;;17.50;95.30;;;;;;804439;174;26992;-79
2024/03/22 10:49:52;;;;;;;14.33;8.17;;;17.50;95.50;;;;;;816025;174;26460;-79
2024/03/22 10:52:40;;;;;;;16.57;9.70;;;17.60;94.80;;;;;;799745;177;26561;-81
2024/03/22 10:55:16;;;;;;;14.67;9.60;;;17.60;95.20;;;;;;795493;179;26458;-81
2024/03/22 11:00:46;;;;;;;17.20;10.33;;;17.80;94.70;;;;;;812507;175;26441;-80
2024/03/22 11:03:56;;;;;;;17.83;10.33;;;17.50;95.30;;;;;;800266;176;26434;-82
2024/03/22 11:08:54;;;;;;;28.73;15.07;;;17.30;95.60;;;;;;813712;175;26453;-81
2024/03/22 11:13:59;;;;;;;21.27;11.70;;;17.20;97.30;;;;;;814429;175;26937;-81
2024/03/22 11:16:25;;;;;;;24.27;13.13;;;17.30;96.20;;;;;;812246;175;26442;-80
2024/03/22 11:18:52;;;;;;;19.07;11.27;;;17.00;97.00;;;;;;810441;177;26449;-80
2024/03/22 11:21:19;;;;;;;43.60;24.90;;;17.00;97.00;;;;;;808703;177;26438;-81
2024/03/22 11:23:45;;;;;;;31.30;16.10;;;17.10;97.00;;;;;;800791;176;26437;-81
2024/03/22 11:26:12;;;;;;;36.67;22.30;;;17.20;96.70;;;;;;811308;176;26539;-82
2024/03/22 11:28:39;;;;;;;77.83;42.13;;;17.20;96.90;;;;;;794529;177;26464;-81
2024/03/22 11:31:06;;;;;;;40.30;23.13;;;17.30;98.10;;;;;;807727;177;26463;-80
2024/03/22 11:33:32;;;;;;;32.77;20.27;;;17.40;97.60;;;;;;803639;177;26992;-82
2024/03/22 11:36:00;;;;;;;42.97;21.80;;;17.70;96.30;;;;;;804288;177;26483;-82
2024/03/22 11:38:27;;;;;;;34.40;19.10;;;17.70;97.00;;;;;;797444;178;26501;-82
2024/03/22 11:40:53;;;;;;;25.10;17.30;;;17.80;94.90;;;;;;797645;177;29012;-80
2024/03/22 11:43:20;;;;;;;30.83;18.07;;;17.60;96.20;;;;;;811900;174;26440;-82
2024/03/22 11:45:46;;;;;;;22.27;14.97;;;17.70;96.80;;;;;;810350;176;26456;-81
2024/03/22 11:48:13;;;;;;;57.10;34.53;;;17.70;95.70;;;;;;802505;176;26468;-80
2024/03/22 11:50:39;;;;;;;34.27;18.17;;;17.40;97.20;;;;;;813581;175;26445;-79
2024/03/22 11:53:06;;;;;;;54.00;27.37;;;17.30;96.20;;;;;;797274;177;26444;-79
2024/03/22 11:55:33;;;;;;;35.20;22.57;;;17.10;96.30;;;;;;801411;177;26463;-81
2024/03/22 11:57:59;;;;;;;36.63;22.00;;;16.80;96.90;;;;;;814940;176;26454;-81
2024/03/22 12:00:26;;;;;;;29.37;19.23;;;16.80;97.00;;;;;;810676;176;26981;-81
2024/03/22 12:02:52;;;;;;;30.87;18.17;;;16.40;97.00;;;;;;812716;176;26429;-81
2024/03/22 12:05:19;;;;;;;33.57;20.40;;;16.40;97.90;;;;;;804151;177;26660;-80
2024/03/22 12:07:46;;;;;;;43.67;25.90;;;16.50;97.90;;;;;;800399;177;26450;-79
2024/03/22 12:10:12;;;;;;;86.40;41.10;;;16.70;97.90;;;;;;814038;174;26969;-81
2024/03/22 12:12:39;;;;;;;36.67;21.80;;;16.70;96.20;;;;;;810131;176;26454;-80
2024/03/22 12:15:06;;;;;;;30.03;18.13;;;16.70;97.30;;;;;;812942;174;26437;-81
2024/03/22 12:17:35;;;;;;;47.60;27.13;;;16.70;97.40;;;;;;813543;176;26427;-82
2024/03/22 12:19:59;;;;;;;39.73;24.80;;;16.70;96.90;;;;;;812298;175;26426;-80
2024/03/22 12:22:26;;;;;;;55.80;29.23;;;16.70;97.10;;;;;;812790;175;26465;-80
2024/03/22 12:24:52;;;;;;;55.07;30.60;;;16.60;96.90;;;;;;802546;178;26428;-82
2024/03/22 12:27:19;;;;;;;27.20;15.50;;;16.70;97.00;;;;;;810148;177;26967;-82
2024/03/22 12:29:46;;;;;;;22.80;14.00;;;16.60;95.70;;;;;;813166;176;26442;-81
2024/03/22 12:32:12;;;;;;;29.67;18.40;;;16.90;96.80;;;;;;815222;176;26452;-81
2024/03/22 12:34:39;;;;;;;31.50;19.50;;;16.80;97.40;;;;;;812448;176;26433;-80